Time;durP1;ratioP1;P1;durP2;ratioP2;P2;SDS_P1;SDS_P2;PMS_P1;PMS_P2;Temp;Humidity;BMP_temperature;BMP_pressure;BME280_temperature;BME280_humidity;BME280_pressure;Samples;Min_cycle;Max_cycle;Signal;HPM_P1;HPM_P2
2022/04/05 00:01:36;;;;;;;4.33;3.93;;;;;;;1.80;79.30;98769.97;4995721;28;20069;-65
2022/04/05 00:04:02;;;;;;;5.23;3.93;;;;;;;1.79;79.02;98757.00;4980960;28;20062;-65
2022/04/05 00:06:27;;;;;;;5.33;4.07;;;;;;;1.81;79.17;98752.44;4983684;28;20041;-63
2022/04/05 00:08:55;;;;;;;3.97;3.50;;;;;;;1.83;79.06;98748.66;5004193;28;20141;-60
2022/04/05 00:11:21;;;;;;;5.07;4.00;;;;;;;1.87;79.17;98743.91;4987103;28;20074;-62
2022/04/05 00:13:46;;;;;;;4.97;4.10;;;;;;;1.86;79.06;98740.47;5003532;28;20802;-66
2022/04/05 00:16:11;;;;;;;5.30;4.03;;;;;;;1.91;78.84;98732.13;4985800;28;20034;-63
2022/04/05 00:18:38;;;;;;;6.17;4.23;;;;;;;1.91;78.73;98728.69;5002816;28;20513;-65
2022/04/05 00:21:05;;;;;;;5.83;4.20;;;;;;;1.88;78.83;98732.44;5000530;28;20037;-63
2022/04/05 00:23:30;;;;;;;6.77;5.03;;;;;;;1.84;78.94;98726.69;5002187;28;20301;-63
2022/04/05 00:25:56;;;;;;;6.30;4.53;;;;;;;1.80;79.18;98727.16;5003096;28;20749;-63
2022/04/05 00:28:21;;;;;;;5.30;4.43;;;;;;;1.79;79.67;98715.84;5003756;28;20041;-63
2022/04/05 00:30:47;;;;;;;4.80;4.30;;;;;;;1.81;79.92;98713.06;5003279;28;20093;-66
2022/04/05 00:33:13;;;;;;;5.27;4.47;;;;;;;1.82;79.26;98714.69;4981652;28;20120;-65
2022/04/05 00:35:38;;;;;;;6.47;5.23;;;;;;;1.80;79.37;98709.59;4995552;28;20038;-70
2022/04/05 00:38:04;;;;;;;5.07;4.27;;;;;;;1.76;79.69;98684.66;4995860;28;20045;-64
2022/04/05 00:40:30;;;;;;;4.23;3.83;;;;;;;1.81;79.31;98686.81;4995190;28;20061;-67
2022/04/05 00:42:57;;;;;;;7.57;6.13;;;;;;;1.82;79.00;98683.22;4995204;28;20081;-67
2022/04/05 00:45:22;;;;;;;4.47;3.83;;;;;;;1.83;79.14;98682.22;4977414;28;20634;-69
2022/04/05 00:47:50;;;;;;;5.60;4.33;;;;;;;1.83;78.95;98682.22;4995085;28;20367;-65
2022/04/05 00:50:20;;;;;;;6.50;5.00;;;;;;;1.84;79.02;98676.00;4995146;28;20379;-65
2022/04/05 00:52:46;;;;;;;5.33;4.37;;;;;;;1.80;79.27;98674.66;4996249;28;20272;-63
2022/04/05 00:55:12;;;;;;;5.93;4.43;;;;;;;1.79;79.24;98665.97;4994771;28;20633;-64
2022/04/05 00:57:40;;;;;;;4.73;4.13;;;;;;;1.81;79.48;98665.81;4994594;28;20498;-65
2022/04/05 01:00:08;;;;;;;6.50;4.57;;;;;;;1.84;79.28;98647.94;4994948;28;20324;-69
2022/04/05 01:02:39;;;;;;;5.80;4.07;;;;;;;1.86;79.34;98642.53;4961374;28;20049;-67
2022/04/05 01:05:06;;;;;;;5.37;4.60;;;;;;;1.86;79.27;98637.28;4995180;28;20282;-67
2022/04/05 01:07:34;;;;;;;6.70;4.97;;;;;;;1.87;79.27;98644.19;4996770;28;20278;-64
2022/04/05 01:10:05;;;;;;;5.82;5.28;;;;;;;1.80;79.51;98627.44;4995293;28;20308;-64
2022/04/05 01:12:31;;;;;;;5.60;4.77;;;;;;;1.80;79.69;98627.44;4994412;28;20042;-64
2022/04/05 01:14:56;;;;;;;5.67;4.87;;;;;;;1.70;80.19;98600.47;4994632;28;20610;-66
2022/04/05 01:17:21;;;;;;;5.37;4.87;;;;;;;1.77;80.15;98617.25;4994442;28;20490;-67
2022/04/05 01:19:47;;;;;;;6.90;5.40;;;;;;;1.69;79.88;98609.31;4994550;28;20042;-66
2022/04/05 01:22:13;;;;;;;5.53;5.03;;;;;;;1.65;81.05;98600.94;4997754;28;20125;-63
2022/04/05 01:24:39;;;;;;;6.33;5.50;;;;;;;1.60;81.01;98595.38;4994270;28;20041;-67
2022/04/05 01:27:06;;;;;;;6.13;4.63;;;;;;;1.50;81.71;98579.75;4994113;28;20274;-65
2022/04/05 01:29:33;;;;;;;6.13;5.00;;;;;;;1.54;81.15;98581.09;4994405;28;20042;-64
2022/04/05 01:32:07;;;;;;;5.40;4.80;;;;;;;1.60;81.35;98581.44;4977059;28;20278;-63
2022/04/05 01:34:37;;;;;;;7.90;4.47;;;;;;;1.63;80.90;98573.25;4994266;28;20356;-69
2022/04/05 01:37:05;;;;;;;5.13;4.63;;;;;;;1.62;81.24;98568.97;4997129;28;20771;-64
2022/04/05 01:39:33;;;;;;;5.55;4.30;;;;;;;1.52;81.13;98551.56;4976602;28;20787;-66
2022/04/05 01:42:01;;;;;;;6.20;4.70;;;;;;;1.47;81.40;98551.22;4993953;28;20042;-67
2022/04/05 01:44:30;;;;;;;6.63;5.03;;;;;;;1.47;81.47;98543.38;4976703;28;20293;-64
2022/04/05 01:46:56;;;;;;;7.33;4.67;;;;;;;1.43;81.77;98534.13;4993971;28;20324;-69
2022/04/05 01:49:22;;;;;;;5.50;5.00;;;;;;;1.35;81.76;98520.19;4994676;28;20355;-62
2022/04/05 01:51:49;;;;;;;6.57;5.03;;;;;;;1.32;82.26;98521.31;4994678;28;20356;-65
2022/04/05 01:54:17;;;;;;;6.80;5.37;;;;;;;1.32;82.09;98513.47;4994520;28;20277;-66
2022/04/05 01:56:45;;;;;;;7.00;6.30;;;;;;;1.37;82.15;98499.88;4994091;28;20305;-70
2022/04/05 01:59:12;;;;;;;7.47;5.73;;;;;;;1.48;81.48;98507.47;4993757;28;20038;-66
2022/04/05 02:01:38;;;;;;;9.40;6.90;;;;;;;1.46;81.67;98502.38;4994266;28;20262;-63
2022/04/05 02:04:04;;;;;;;8.40;6.67;;;;;;;1.45;81.33;98487.63;4993995;28;20265;-63
2022/04/05 02:06:30;;;;;;;6.53;5.93;;;;;;;1.39;81.50;98477.75;4994471;28;20092;-63
2022/04/05 02:08:56;;;;;;;9.53;7.30;;;;;;;1.53;81.39;98500.75;4995887;28;20506;-67
2022/04/05 02:11:24;;;;;;;8.70;6.10;;;;;;;1.48;81.02;98479.44;4993035;28;20296;-66
2022/04/05 02:13:50;;;;;;;9.57;6.47;;;;;;;1.57;81.16;98484.69;4993021;28;20288;-66
2022/04/05 02:16:15;;;;;;;7.23;6.47;;;;;;;1.48;81.10;98465.50;4993542;28;20274;-68
2022/04/05 02:18:43;;;;;;;7.93;6.23;;;;;;;1.59;81.08;98477.47;4993303;28;20039;-66
2022/04/05 02:21:08;;;;;;;7.53;6.67;;;;;;;1.61;80.54;98475.50;4993110;28;20035;-65
2022/04/05 02:23:34;;;;;;;8.67;6.90;;;;;;;1.56;80.54;98481.25;4996219;28;20301;-65
2022/04/05 02:26:00;;;;;;;9.57;6.73;;;;;;;1.60;80.10;98468.63;4975772;28;20486;-68
2022/04/05 02:28:25;;;;;;;9.17;6.80;;;;;;;1.51;80.57;98455.50;4976329;28;20489;-68
2022/04/05 02:30:52;;;;;;;7.17;6.13;;;;;;;1.54;80.69;98460.41;4977006;28;20031;-65
2022/04/05 02:33:17;;;;;;;10.17;7.07;;;;;;;1.54;81.02;98455.16;4994564;28;20042;-65
2022/04/05 02:35:43;;;;;;;8.73;6.63;;;;;;;1.59;80.75;98446.00;4993312;28;20284;-65
2022/04/05 02:38:10;;;;;;;7.87;7.07;;;;;;;1.49;81.00;98441.72;4995732;28;20485;-67
2022/04/05 02:40:36;;;;;;;7.67;6.37;;;;;;;1.48;81.03;98437.47;4994579;28;20506;-69
2022/04/05 02:43:03;;;;;;;7.40;6.70;;;;;;;1.54;81.02;98444.69;4993846;28;20301;-64
2022/04/05 02:45:30;;;;;;;10.63;7.70;;;;;;;1.48;81.03;98429.59;4994513;28;20042;-65
2022/04/05 02:47:55;;;;;;;7.67;6.87;;;;;;;1.40;81.21;98416.44;4993592;28;20823;-65
2022/04/05 02:50:21;;;;;;;8.27;7.37;;;;;;;1.46;81.49;98417.63;4993287;28;20313;-66
2022/04/05 02:52:48;;;;;;;8.90;7.83;;;;;;;1.44;81.33;98404.63;4993491;28;20038;-68
2022/04/05 02:55:15;;;;;;;9.07;7.70;;;;;;;1.45;81.50;98395.00;4994362;28;20120;-66
2022/04/05 02:57:41;;;;;;;10.87;8.30;;;;;;;1.45;80.85;98403.69;4978313;28;20645;-65
2022/04/05 03:00:08;;;;;;;9.37;8.13;;;;;;;1.39;81.15;98383.31;4994370;28;20273;-66
2022/04/05 03:02:35;;;;;;;10.87;8.00;;;;;;;1.44;80.82;98390.72;4993561;28;20301;-64
2022/04/05 03:05:01;;;;;;;8.77;7.87;;;;;;;1.42;81.20;98377.75;4975088;28;20273;-65
2022/04/05 03:07:27;;;;;;;10.27;9.27;;;;;;;1.38;80.76;98376.44;4994083;28;20261;-64
2022/04/05 03:09:54;;;;;;;11.70;9.33;;;;;;;1.44;81.13;98380.22;4994150;28;20368;-64
2022/04/05 03:12:20;;;;;;;10.67;8.20;;;;;;;1.35;81.28;98366.28;4992608;28;20377;-65
2022/04/05 03:14:45;;;;;;;11.90;9.70;;;;;;;1.37;81.17;98353.81;4975212;28;20356;-67
2022/04/05 03:17:12;;;;;;;11.00;9.77;;;;;;;1.38;81.50;98360.72;4994278;28;20158;-65
2022/04/05 03:19:37;;;;;;;12.53;9.20;;;;;;;1.37;81.46;98363.50;4993874;28;20041;-63
2022/04/05 03:22:05;;;;;;;12.33;9.23;;;;;;;1.20;81.88;98336.47;4978726;28;20289;-63
2022/04/05 03:24:31;;;;;;;21.73;11.33;;;;;;;1.32;81.88;98335.16;5001731;28;20121;-63
2022/04/05 03:26:57;;;;;;;11.10;9.13;;;;;;;1.29;81.68;98324.97;5002391;28;20280;-65
2022/04/05 03:29:23;;;;;;;13.47;9.50;;;;;;;1.05;81.74;98290.88;5000441;28;20353;-67
2022/04/05 03:31:49;;;;;;;13.73;10.53;;;;;;;1.31;81.65;98328.25;4999772;28;20297;-65
2022/04/05 03:34:14;;;;;;;13.63;10.20;;;;;;;1.25;81.92;98315.81;4996323;28;20745;-65
2022/04/05 03:36:43;;;;;;;14.20;11.33;;;;;;;1.30;81.84;98331.03;4996297;28;20042;-68
2022/04/05 03:39:10;;;;;;;14.98;10.68;;;;;;;1.24;82.15;98322.84;4981991;28;20042;-68
2022/04/05 03:41:36;;;;;;;13.80;10.40;;;;;;;1.27;82.26;98320.88;4996314;28;20125;-64
2022/04/05 03:44:02;;;;;;;12.57;10.43;;;;;;;1.21;82.07;98311.88;4978911;28;20844;-65
2022/04/05 03:46:29;;;;;;;13.33;10.73;;;;;;;1.26;82.11;98303.53;4996310;28;20308;-70
2022/04/05 03:48:54;;;;;;;16.60;11.37;;;;;;;1.20;81.39;98312.88;4996800;28;20780;-70
2022/04/05 03:51:20;;;;;;;15.30;10.60;;;;;;;1.11;81.76;98298.91;4996279;28;20457;-65
2022/04/05 03:53:46;;;;;;;13.20;11.80;;;;;;;1.01;82.42;98295.63;4997824;28;20038;-66
2022/04/05 03:56:11;;;;;;;15.20;11.13;;;;;;;1.00;82.60;98298.41;4995996;28;20062;-69
2022/04/05 03:58:37;;;;;;;14.67;10.20;;;;;;;0.97;82.60;98294.31;4995852;28;20035;-69
2022/04/05 04:01:03;;;;;;;13.73;9.83;;;;;;;0.99;83.52;98281.06;4995713;28;20046;-64
2022/04/05 04:03:28;;;;;;;16.23;9.93;;;;;;;1.01;82.31;98276.47;4995614;28;20404;-72
2022/04/05 04:05:54;;;;;;;15.43;10.07;;;;;;;0.88;82.64;98272.53;4996286;28;20038;-66
2022/04/05 04:08:20;;;;;;;14.87;11.20;;;;;;;0.83;83.40;98277.41;5000152;28;20061;-63
2022/04/05 04:10:51;;;;;;;16.40;10.23;;;;;;;0.76;84.13;98263.31;4995754;28;20066;-68
2022/04/05 04:13:16;;;;;;;16.70;11.80;;;;;;;0.55;83.52;98226.28;4995436;28;20280;-69
2022/04/05 04:15:42;;;;;;;13.23;11.10;;;;;;;0.77;83.38;98257.09;4995592;28;20273;-69
2022/04/05 04:18:07;;;;;;;14.33;11.33;;;;;;;0.79;83.12;98249.91;4995466;28;20046;-68
2022/04/05 04:20:33;;;;;;;18.57;13.97;;;;;;;0.75;83.56;98225.00;4995561;28;20497;-70
2022/04/05 04:22:58;;;;;;;15.20;12.53;;;;;;;0.76;83.54;98242.38;4980013;28;20493;-70
2022/04/05 04:25:24;;;;;;;16.80;11.67;;;;;;;0.70;84.03;98235.16;4978745;28;20105;-75
2022/04/05 04:27:50;;;;;;;18.20;12.27;;;;;;;0.79;83.94;98228.13;4961329;28;20096;-70
2022/04/05 04:30:15;;;;;;;22.03;13.80;;;;;;;0.81;83.52;98232.22;4994761;28;20129;-69
2022/04/05 04:32:41;;;;;;;18.57;11.93;;;;;;;0.78;83.50;98216.81;4977141;28;20455;-64
2022/04/05 04:35:07;;;;;;;16.27;12.83;;;;;;;0.80;83.25;98216.66;4977604;28;20041;-65
2022/04/05 04:37:33;;;;;;;16.67;13.13;;;;;;;0.74;83.60;98215.50;4995196;28;20046;-64
2022/04/05 04:39:59;;;;;;;15.03;11.73;;;;;;;0.74;83.32;98217.31;4995838;28;20304;-64
2022/04/05 04:42:24;;;;;;;18.07;12.37;;;;;;;0.74;83.39;98212.06;4994891;28;20156;-66
2022/04/05 04:44:50;;;;;;;20.10;13.67;;;;;;;0.69;82.80;98199.47;4994799;28;20044;-64
2022/04/05 04:47:17;;;;;;;14.03;12.27;;;;;;;0.71;83.75;98194.88;4995140;28;20108;-66
2022/04/05 04:49:44;;;;;;;17.93;14.00;;;;;;;0.78;83.36;98195.03;4994892;28;20278;-63
2022/04/05 04:52:10;;;;;;;16.37;12.03;;;;;;;0.79;82.93;98187.03;4994906;28;20576;-64
2022/04/05 04:54:36;;;;;;;16.03;12.27;;;;;;;0.72;82.66;98178.19;4995824;28;20269;-64
2022/04/05 04:57:02;;;;;;;17.90;12.73;;;;;;;0.69;82.17;98181.13;4977086;28;20257;-63
2022/04/05 04:59:28;;;;;;;24.13;13.83;;;;;;;0.60;82.55;98179.50;4994085;28;20048;-65
2022/04/05 05:01:54;;;;;;;20.03;14.30;;;;;;;0.66;83.01;98185.88;4975720;28;20356;-65
2022/04/05 05:04:19;;;;;;;13.53;11.33;;;;;;;0.56;82.60;98158.03;4993413;28;20906;-65
2022/04/05 05:06:45;;;;;;;15.90;12.60;;;;;;;0.62;83.14;98164.44;4994301;28;20077;-66
2022/04/05 05:09:11;;;;;;;17.83;13.23;;;;;;;0.69;83.30;98169.84;4994989;28;20100;-65
2022/04/05 05:11:37;;;;;;;20.37;13.07;;;;;;;0.65;82.69;98158.06;4977071;28;20353;-65
2022/04/05 05:14:03;;;;;;;19.40;12.07;;;;;;;0.66;83.18;98155.28;4976338;28;20268;-65
2022/04/05 05:16:29;;;;;;;15.17;13.13;;;;;;;0.64;82.74;98154.63;4977055;28;20474;-66
2022/04/05 05:18:54;;;;;;;18.17;13.60;;;;;;;0.66;83.49;98143.97;4994317;28;20261;-64
2022/04/05 05:21:20;;;;;;;16.77;13.80;;;;;;;0.69;82.52;98139.22;4993960;28;20042;-64
2022/04/05 05:23:46;;;;;;;17.47;14.50;;;;;;;0.64;83.33;98141.53;4994853;28;20045;-65
2022/04/05 05:26:13;;;;;;;18.83;13.63;;;;;;;0.65;83.32;98139.72;4976569;28;20140;-68
2022/04/05 05:28:38;;;;;;;15.57;13.33;;;;;;;0.65;83.09;98124.81;4976816;28;20328;-70
2022/04/05 05:31:04;;;;;;;20.23;14.27;;;;;;;0.58;82.81;98121.22;4975958;28;20744;-69
2022/04/05 05:33:31;;;;;;;18.50;14.17;;;;;;;0.51;83.97;98120.22;4994100;28;20050;-68
2022/04/05 05:35:58;;;;;;;17.27;14.17;;;;;;;0.44;83.40;98109.59;4992325;28;20035;-80
2022/04/05 05:38:24;;;;;;;17.93;14.10;;;;;;;0.52;84.49;98095.66;4995292;28;20269;-72
2022/04/05 05:40:50;;;;;;;20.30;15.00;;;;;;;0.55;83.92;98095.34;4977015;28;20270;-71
2022/04/05 05:43:16;;;;;;;21.67;15.87;;;;;;;0.64;84.11;98112.72;4959896;28;20038;-66
2022/04/05 05:45:41;;;;;;;22.13;16.03;;;;;;;0.64;84.46;98109.28;4992915;28;20281;-69
2022/04/05 05:48:08;;;;;;;21.17;16.13;;;;;;;0.64;83.33;98099.63;4972404;28;20553;-67
2022/04/05 05:50:33;;;;;;;25.87;17.17;;;;;;;0.57;83.93;98085.50;4983530;28;20057;-76
2022/04/05 05:53:00;;;;;;;22.00;17.50;;;;;;;0.61;84.23;98099.94;4949790;28;20336;-73
2022/04/05 05:55:26;;;;;;;21.63;15.87;;;;;;;0.60;83.73;98093.06;4968887;28;20274;-72
2022/04/05 05:57:52;;;;;;;21.07;16.87;;;;;;;0.25;83.64;98044.44;4982728;28;20534;-73
2022/04/05 06:00:22;;;;;;;25.97;15.80;;;;;;;0.50;84.36;98076.69;4984448;28;20360;-72
2022/04/05 06:03:00;;;;;;;21.03;16.10;;;;;;;0.40;84.60;98078.66;4980201;28;20039;-75
2022/04/05 06:05:26;;;;;;;25.70;18.60;;;;;;;0.40;85.72;98070.81;4982062;28;20645;-70
2022/04/05 06:07:52;;;;;;;26.20;17.37;;;;;;;0.34;85.43;98061.81;4978694;28;20762;-71
2022/04/05 06:10:19;;;;;;;25.83;16.70;;;;;;;0.52;85.01;98075.53;4983373;28;20289;-75
2022/04/05 06:12:46;;;;;;;27.33;18.40;;;;;;;0.59;84.68;98070.47;4967741;28;20056;-75
2022/04/05 06:15:14;;;;;;;23.83;16.97;;;;;;;0.65;84.42;98075.06;4966253;28;20273;-70
2022/04/05 06:17:42;;;;;;;25.77;19.17;;;;;;;0.72;84.87;98070.78;4994812;28;20300;-73
2022/04/05 06:20:09;;;;;;;28.83;17.05;;;;;;;0.70;84.65;98048.38;4991201;28;20301;-74
2022/04/05 06:22:41;;;;;;;20.63;15.83;;;;;;;0.76;83.96;98035.41;4986849;28;20133;-72
2022/04/05 06:25:16;;;;;;;31.40;21.05;;;;;;;0.73;84.36;98020.03;4957172;28;20274;-74
2022/04/05 06:27:41;;;;;;;23.98;16.83;;;;;;;0.82;84.22;98034.72;4987161;28;20030;-72
2022/04/05 06:30:08;;;;;;;27.37;16.97;;;;;;;0.84;84.28;98035.38;4983929;28;20039;-71
2022/04/05 06:32:34;;;;;;;25.77;18.17;;;;;;;0.81;83.42;98035.72;4983214;28;20441;-67
2022/04/05 06:35:01;;;;;;;23.57;17.00;;;;;;;0.79;83.04;98035.06;4950655;28;20360;-69
2022/04/05 06:37:27;;;;;;;23.63;17.30;;;;;;;0.78;84.00;98025.56;4969110;28;20277;-76
2022/04/05 06:39:52;;;;;;;24.97;18.17;;;;;;;0.87;83.77;98042.94;4982714;28;20285;-71
2022/04/05 06:42:18;;;;;;;24.57;16.70;;;;;;;0.88;83.63;98020.16;4966629;28;20500;-69
2022/04/05 06:44:44;;;;;;;23.93;18.43;;;;;;;0.87;83.99;98021.97;4966836;28;20073;-69
2022/04/05 06:47:11;;;;;;;26.27;20.13;;;;;;;0.85;84.25;98021.28;4965599;28;20034;-70
2022/04/05 06:49:38;;;;;;;22.70;17.25;;;;;;;0.81;84.65;98011.31;4986988;28;20117;-68
2022/04/05 06:52:04;;;;;;;25.47;18.70;;;;;;;0.81;84.15;98012.13;4992228;28;20072;-66
2022/04/05 06:54:30;;;;;;;24.40;17.23;;;;;;;0.87;83.88;98021.97;4992780;28;20297;-61
2022/04/05 06:56:55;;;;;;;23.60;18.30;;;;;;;0.82;83.83;98003.28;4975709;28;20124;-64
2022/04/05 06:59:20;;;;;;;26.60;19.07;;;;;;;0.74;83.63;98005.94;4992626;28;20054;-65
2022/04/05 07:01:46;;;;;;;27.47;20.20;;;;;;;0.80;84.07;98004.44;4992649;28;20059;-64
2022/04/05 07:04:11;;;;;;;22.90;16.97;;;;;;;0.73;84.05;97995.63;4992537;28;20417;-61
2022/04/05 07:06:37;;;;;;;25.57;18.70;;;;;;;0.81;84.90;98001.66;4974975;28;20061;-62
2022/04/05 07:09:05;;;;;;;25.87;19.43;;;;;;;0.82;83.76;97992.81;4992579;28;20153;-63
2022/04/05 07:11:34;;;;;;;26.97;19.63;;;;;;;0.77;84.53;98008.22;4975343;28;20097;-63
2022/04/05 07:14:00;;;;;;;25.93;19.10;;;;;;;0.76;84.42;97987.44;4992352;28;20425;-67
2022/04/05 07:16:25;;;;;;;25.13;18.43;;;;;;;0.78;84.59;97986.28;4992495;28;20752;-63
2022/04/05 07:18:51;;;;;;;23.73;19.23;;;;;;;0.75;84.29;97964.84;4992343;28;20084;-64
2022/04/05 07:21:19;;;;;;;26.57;20.60;;;;;;;0.79;84.03;97972.19;4993597;28;20390;-64
2022/04/05 07:23:44;;;;;;;28.20;21.27;;;;;;;0.85;84.17;97971.50;4992883;28;20494;-63
2022/04/05 07:26:10;;;;;;;25.63;19.83;;;;;;;0.77;83.87;97953.22;4993762;28;20262;-61
2022/04/05 07:28:36;;;;;;;28.17;19.43;;;;;;;0.95;84.02;97973.13;4975178;28;20026;-61
2022/04/05 07:31:03;;;;;;;27.53;18.67;;;;;;;0.93;83.85;97953.16;4992261;28;20096;-68
2022/04/05 07:33:28;;;;;;;26.23;19.77;;;;;;;1.01;84.07;97961.97;4975044;28;20118;-65
2022/04/05 07:35:54;;;;;;;25.40;17.93;;;;;;;0.98;83.75;97928.25;4992189;28;20409;-65
2022/04/05 07:38:19;;;;;;;24.83;19.73;;;;;;;1.02;83.12;97929.53;4986377;28;20425;-68
2022/04/05 07:40:48;;;;;;;22.97;17.93;;;;;;;1.08;83.20;97955.06;4967534;28;20513;-69
2022/04/05 07:43:25;;;;;;;26.45;18.60;;;;;;;0.95;83.25;97907.63;4966809;28;20442;-66
2022/04/05 07:45:52;;;;;;;25.13;18.97;;;;;;;1.17;84.09;97944.38;4990403;28;20038;-65
2022/04/05 07:48:29;;;;;;;27.43;19.00;;;;;;;1.13;83.04;97947.50;4992503;28;20281;-63
2022/04/05 07:50:55;;;;;;;25.50;18.60;;;;;;;1.09;83.44;97935.72;4991454;28;20668;-63
2022/04/05 07:53:21;;;;;;;28.90;19.07;;;;;;;1.03;83.99;97934.59;4992922;28;20277;-67
2022/04/05 07:55:46;;;;;;;24.37;18.40;;;;;;;1.00;83.39;97928.91;4992791;28;20038;-66
2022/04/05 07:58:12;;;;;;;24.30;20.67;;;;;;;1.04;83.56;97931.00;4992365;28;20116;-67
2022/04/05 08:00:37;;;;;;;22.60;19.07;;;;;;;1.08;84.26;97928.84;4992065;28;20045;-65
2022/04/05 08:03:04;;;;;;;25.13;19.17;;;;;;;1.15;83.00;97911.44;4992965;28;20049;-61
2022/04/05 08:05:30;;;;;;;26.30;19.43;;;;;;;1.18;83.29;97918.97;4992457;28;20129;-68
2022/04/05 08:07:56;;;;;;;26.10;19.97;;;;;;;1.34;83.67;97918.88;4992236;28;20360;-64
2022/04/05 08:10:22;;;;;;;30.93;18.87;;;;;;;1.40;83.07;97902.44;4995893;28;20038;-66
2022/04/05 08:12:49;;;;;;;25.77;20.00;;;;;;;1.47;82.15;97900.78;4995542;28;20286;-63
2022/04/05 08:15:18;;;;;;;26.70;20.70;;;;;;;1.48;82.37;97883.22;4995361;28;20368;-66
2022/04/05 08:17:43;;;;;;;;;;;;;;;1.69;81.32;97906.97;4996335;28;20349;-69
2022/04/05 08:20:09;;;;;;;23.33;18.43;;;;;;;1.77;81.10;97891.19;4978126;28;20360;-65
2022/04/05 08:22:35;;;;;;;25.77;19.47;;;;;;;1.83;81.40;97897.53;4995823;28;20050;-66
2022/04/05 08:25:01;;;;;;;26.13;18.40;;;;;;;1.90;80.38;97893.22;4995995;28;20775;-63
2022/04/05 08:27:26;;;;;;;23.07;17.40;;;;;;;1.94;80.27;97898.91;4995414;28;20273;-64
2022/04/05 08:29:52;;;;;;;20.53;16.60;;;;;;;2.03;81.06;97888.19;4977460;28;20038;-62
2022/04/05 08:32:18;;;;;;;24.30;17.53;;;;;;;2.04;80.00;97887.19;4995001;28;20050;-63
2022/04/05 08:34:45;;;;;;;22.73;17.53;;;;;;;2.09;80.08;97895.34;4995308;28;20097;-62
2022/04/05 08:37:11;;;;;;;25.03;18.10;;;;;;;2.14;80.09;97879.88;4995140;28;20035;-63
2022/04/05 08:39:38;;;;;;;22.57;17.83;;;;;;;2.19;79.80;97884.56;4995572;28;20835;-62
2022/04/05 08:42:05;;;;;;;24.67;17.03;;;;;;;2.10;78.94;97872.53;4995413;28;20320;-64
2022/04/05 08:44:31;;;;;;;23.10;17.70;;;;;;;2.12;79.34;97866.09;4977358;28;20285;-67
2022/04/05 08:47:01;;;;;;;27.67;18.13;;;;;;;2.08;78.87;97867.47;4995113;28;21149;-66
2022/04/05 08:49:28;;;;;;;24.60;16.07;;;;;;;1.98;78.94;97835.38;4994972;28;20277;-71
2022/04/05 08:51:54;;;;;;;21.23;16.70;;;;;;;2.26;79.14;97876.78;4994755;28;20311;-70
2022/04/05 08:54:20;;;;;;;28.97;19.27;;;;;;;2.25;79.02;97880.41;4994851;28;20273;-70
2022/04/05 08:56:47;;;;;;;36.10;20.00;;;;;;;2.26;79.62;97866.28;4995585;28;20280;-65
2022/04/05 08:59:16;;;;;;;22.30;19.17;;;;;;;2.26;78.05;97858.41;4994748;28;20048;-66
2022/04/05 09:01:43;;;;;;;25.13;18.50;;;;;;;2.17;78.80;97869.00;4995076;28;20312;-68
2022/04/05 09:04:10;;;;;;;19.47;16.10;;;;;;;2.10;79.49;97847.09;4961557;28;20305;-69
2022/04/05 09:06:36;;;;;;;26.97;21.13;;;;;;;2.18;78.96;97870.63;4994814;28;20269;-69
2022/04/05 09:09:13;;;;;;;26.93;17.80;;;;;;;2.25;78.90;97849.72;4994751;28;20769;-71
2022/04/05 09:11:53;;;;;;;22.08;17.55;;;;;;;2.32;78.84;97865.59;4995016;28;20340;-68
2022/04/05 09:14:23;;;;;;;;;;;;;;;2.38;77.73;97855.16;4994899;28;20045;-72
2022/04/05 09:17:04;;;;;;;19.37;15.60;;;;;;;2.34;78.09;97858.34;4976931;28;19922;-69
2022/04/05 09:19:38;;;;;;;20.17;16.00;;;;;;;2.44;78.97;97832.59;4993114;28;20258;-71
2022/04/05 09:22:04;;;;;;;20.07;16.13;;;;;;;2.57;77.49;97848.53;4993867;28;20309;-71
2022/04/05 09:24:34;;;;;;;17.47;14.80;;;;;;;2.47;77.55;97845.38;4994259;28;20268;-74
2022/04/05 09:27:00;;;;;;;20.27;16.87;;;;;;;2.38;78.05;97846.47;4995134;28;20402;-74
2022/04/05 09:29:42;;;;;;;21.47;15.53;;;;;;;2.41;77.74;97849.53;4977109;28;20269;-74
2022/04/05 09:32:09;;;;;;;21.83;17.00;;;;;;;2.37;78.91;97860.59;4993771;28;20112;-71
2022/04/05 09:34:51;;;;;;;23.83;18.23;;;;;;;2.37;78.43;97847.47;4993699;28;20270;-71
2022/04/05 09:37:25;;;;;;;21.30;17.57;;;;;;;2.22;78.57;97852.69;4976548;28;20618;-68
2022/04/05 09:39:51;;;;;;;21.07;16.30;;;;;;;2.14;79.29;97848.34;4994163;28;20269;-68
2022/04/05 09:42:17;;;;;;;24.77;17.27;;;;;;;2.11;78.82;97864.47;4977128;28;20304;-70
2022/04/05 09:44:43;;;;;;;21.67;15.43;;;;;;;2.17;79.20;97847.19;4993875;28;20262;-68
2022/04/05 09:47:19;;;;;;;19.97;15.63;;;;;;;1.98;78.97;97816.19;4976387;28;20405;-66
2022/04/05 09:49:48;;;;;;;19.60;15.73;;;;;;;2.22;78.73;97849.25;4994828;28;20045;-69
2022/04/05 09:52:41;;;;;;;22.70;15.37;;;;;;;2.16;79.78;97856.88;4993700;28;20834;-67
2022/04/05 09:55:13;;;;;;;22.10;17.23;;;;;;;2.13;79.74;97844.09;4988846;28;20361;-69
2022/04/05 09:57:39;;;;;;;18.87;16.60;;;;;;;2.12;79.67;97834.59;4995014;28;20392;-66
2022/04/05 10:00:07;;;;;;;25.00;16.97;;;;;;;2.15;80.53;97844.75;4993747;28;20353;-68
2022/04/05 10:02:33;;;;;;;24.38;16.77;;;;;;;2.20;80.46;97840.75;4975982;28;20161;-70
2022/04/05 10:05:09;;;;;;;19.87;15.67;;;;;;;2.30;80.28;97844.72;4993388;28;20081;-72
2022/04/05 10:07:36;;;;;;;20.40;16.53;;;;;;;2.41;80.13;97838.22;4993332;28;20062;-70
2022/04/05 10:10:05;;;;;;;19.77;16.37;;;;;;;2.56;79.07;97846.88;4992977;28;20296;-69
2022/04/05 10:12:31;;;;;;;22.23;16.90;;;;;;;2.65;79.06;97845.00;4993989;28;20720;-71
2022/04/05 10:14:57;;;;;;;20.00;16.37;;;;;;;2.69;78.83;97841.81;4977970;28;20301;-72
2022/04/05 10:17:28;;;;;;;21.93;15.83;;;;;;;2.66;78.62;97836.94;4993988;28;20081;-67
2022/04/05 10:19:56;;;;;;;21.27;16.80;;;;;;;2.51;79.33;97807.22;4994508;28;20254;-66
2022/04/05 10:22:23;;;;;;;18.90;14.45;;;;;;;2.52;78.65;97829.88;4992904;28;20305;-69
2022/04/05 10:24:53;;;;;;;20.00;14.40;;;;;;;2.52;79.60;97840.38;4964691;28;20106;-66
2022/04/05 10:27:20;;;;;;;21.13;15.83;;;;;;;2.55;79.79;97839.19;4973618;28;20319;-71
2022/04/05 10:29:56;;;;;;;18.17;14.07;;;;;;;2.55;79.29;97853.16;4982044;28;20273;-71
2022/04/05 10:32:36;;;;;;;27.10;18.17;;;;;;;2.51;79.40;97838.75;4966653;28;20841;-69
2022/04/05 10:35:05;;;;;;;16.10;14.07;;;;;;;2.44;79.69;97841.28;4982538;28;20257;-65
2022/04/05 10:37:35;;;;;;;18.40;15.37;;;;;;;2.41;80.01;97831.16;4964409;28;20296;-64
2022/04/05 10:40:00;;;;;;;18.17;16.07;;;;;;;2.40;80.20;97836.59;4984272;28;20266;-63
2022/04/05 10:42:37;;;;;;;17.13;14.77;;;;;;;2.34;80.26;97837.31;4984003;28;20780;-64
2022/04/05 10:45:14;;;;;;;16.93;14.83;;;;;;;2.34;80.23;97832.88;4963621;28;20038;-63
2022/04/05 10:48:12;;;;;;;16.47;14.30;;;;;;;2.25;80.94;97817.38;4980652;28;20305;-61
2022/04/05 10:50:43;;;;;;;22.35;15.80;;;;;;;2.27;81.85;97829.34;4981089;28;20270;-63
2022/04/05 10:53:34;;;;;;;18.27;13.90;;;;;;;2.27;80.62;97834.59;4983454;28;20129;-67
2022/04/05 10:56:11;;;;;;;15.83;13.43;;;;;;;2.17;80.76;97829.63;4971740;28;20644;-69
2022/04/05 10:58:39;;;;;;;17.13;12.83;;;;;;;2.16;81.59;97830.63;4969931;28;20308;-67
2022/04/05 11:01:39;;;;;;;16.80;13.65;;;;;;;2.08;81.78;97828.09;4964078;28;20339;-67
2022/04/05 11:04:14;;;;;;;17.17;13.63;;;;;;;2.06;82.20;97819.56;4929373;28;20047;-68
2022/04/05 11:06:58;;;;;;;16.53;13.60;;;;;;;2.02;81.82;97826.16;4981105;28;20305;-64
2022/04/05 11:09:27;;;;;;;16.70;13.20;;;;;;;2.00;82.56;97819.44;4980349;28;20285;-65
2022/04/05 11:11:54;;;;;;;20.13;15.90;;;;;;;2.07;82.51;97821.19;4990874;28;20351;-69
2022/04/05 11:14:44;;;;;;;15.37;12.93;;;;;;;2.02;83.50;97828.78;4992821;28;20405;-74
2022/04/05 11:17:16;;;;;;;17.00;12.90;;;;;;;1.95;83.24;97829.69;4993555;28;20270;-69
2022/04/05 11:19:44;;;;;;;18.00;14.50;;;;;;;1.98;83.36;97827.50;4993235;28;20266;-68
2022/04/05 11:22:21;;;;;;;16.17;13.60;;;;;;;2.01;84.16;97827.16;4992424;28;20316;-65
2022/04/05 11:24:53;;;;;;;16.07;12.57;;;;;;;2.06;82.86;97824.81;4992386;28;20268;-66
2022/04/05 11:27:25;;;;;;;14.83;12.57;;;;;;;1.99;82.63;97808.13;4992098;28;20633;-66
2022/04/05 11:30:23;;;;;;;16.30;13.73;;;;;;;2.05;82.85;97812.69;4992792;28;20269;-64
2022/04/05 11:33:18;;;;;;;18.27;12.30;;;;;;;2.03;83.46;97817.31;4992607;28;20277;-68